Univ Nv las Vegas, Nevada
Current Conditions -  °F | °C
As of 11:56 PM on Friday 28 Nov 2014 (Local Time) from KLAS Reporting Station
Clear Clear  
Wind Chill: 50°   Ceiling: Unl
Heat Index: 50°   Visibility: 10mi
Dew Point: 23°   Wind: 5mph
Humidity: 35%   Direction: 220°SW
Pressure: 29.83"   Gusts: NA
Location:  36.0857°N, 115.147°W
Report Text: KLAS 290756Z 22004KT 10SM CLR 10/M05 A2983 RMK AO2 SLP094 T01001050 401890061
Loading
Personal Weather Stations






























Interactive Weather Map New forecast layout! Learn more

10-Day Weather Forecast

Advertisements
Track Severe Weather on mobile